createdAt,value
2024-01-05T00:00:06.166Z,251.00
2024-01-05T00:01:06.114Z,250.00
2024-01-05T00:02:06.103Z,252.00
2024-01-05T00:03:06.189Z,252.00
2024-01-05T00:04:06.178Z,253.00
2024-01-05T00:05:06.109Z,253.00
2024-01-05T00:06:06.194Z,254.00
2024-01-05T00:07:06.133Z,255.00
2024-01-05T00:08:06.116Z,256.00
2024-01-05T00:09:06.159Z,256.00
2024-01-05T00:10:06.110Z,254.00
2024-01-05T00:11:06.131Z,254.00
2024-01-05T00:12:07.415Z,254.00
2024-01-05T00:13:06.113Z,256.00
2024-01-05T00:14:06.121Z,257.00
2024-01-05T00:15:06.171Z,260.00
2024-01-05T00:16:06.116Z,259.00
2024-01-05T00:17:06.114Z,257.00
2024-01-05T00:18:06.220Z,258.00
2024-01-05T00:19:06.349Z,256.00
2024-01-05T00:20:06.262Z,256.00
2024-01-05T00:21:06.199Z,257.00
2024-01-05T00:22:06.194Z,258.00
2024-01-05T00:23:06.192Z,257.00
2024-01-05T00:24:06.245Z,259.00
2024-01-05T00:25:06.205Z,260.00
2024-01-05T00:26:06.198Z,260.00
2024-01-05T00:27:06.223Z,262.00
2024-01-05T00:28:06.196Z,260.00
2024-01-05T00:29:06.218Z,260.00
2024-01-05T00:30:06.410Z,260.00
2024-01-05T00:31:06.468Z,260.00
2024-01-05T00:32:06.211Z,259.00
2024-01-05T00:33:06.305Z,258.00
2024-01-05T00:34:06.385Z,256.00
2024-01-05T00:35:06.230Z,257.00
2024-01-05T00:36:06.251Z,256.00
2024-01-05T00:37:06.229Z,256.00
2024-01-05T00:38:06.243Z,257.00
2024-01-05T00:39:06.330Z,260.00
2024-01-05T00:40:06.245Z,261.00
2024-01-05T00:41:06.265Z,261.00
2024-01-05T00:42:06.318Z,259.00
2024-01-05T00:43:06.255Z,257.00
2024-01-05T00:44:06.279Z,258.00
2024-01-05T00:45:06.286Z,259.00
2024-01-05T00:46:06.258Z,258.00
2024-01-05T00:47:06.264Z,259.00
2024-01-05T00:48:06.348Z,259.00
2024-01-05T00:49:06.374Z,257.00
2024-01-05T00:50:06.272Z,258.00
2024-01-05T00:51:06.287Z,259.00
2024-01-05T00:52:06.290Z,260.00
2024-01-05T00:53:06.291Z,261.00
2024-01-05T00:54:06.320Z,261.00
2024-01-05T00:55:06.349Z,261.00
2024-01-05T00:56:06.430Z,259.00
2024-01-05T00:57:07.904Z,259.00
2024-01-05T00:58:06.476Z,261.00
2024-01-05T00:59:06.463Z,258.00
2024-01-05T01:00:06.513Z,254.00
2024-01-05T01:01:06.513Z,255.00
2024-01-05T01:02:06.472Z,255.00
2024-01-05T01:03:06.576Z,255.00
2024-01-05T01:04:06.592Z,255.00
2024-01-05T01:05:06.520Z,254.00
2024-01-05T01:06:06.508Z,255.00
2024-01-05T01:07:06.456Z,255.00
2024-01-05T01:08:06.473Z,255.00
2024-01-05T01:09:06.524Z,255.00
2024-01-05T01:10:06.479Z,255.00
2024-01-05T01:11:06.489Z,255.00
2024-01-05T01:12:06.558Z,255.00
2024-01-05T01:13:06.496Z,254.00
2024-01-05T01:14:06.485Z,254.00
2024-01-05T01:15:06.505Z,256.00
2024-01-05T01:16:06.504Z,257.00
2024-01-05T01:17:06.493Z,259.00
2024-01-05T01:18:06.642Z,260.00
2024-01-05T01:19:06.774Z,260.00
2024-01-05T01:20:06.523Z,260.00
2024-01-05T01:21:06.568Z,259.00
2024-01-05T01:22:06.511Z,257.00
2024-01-05T01:23:06.505Z,256.00
2024-01-05T01:24:06.562Z,254.00
2024-01-05T01:25:06.514Z,254.00
2024-01-05T01:26:06.512Z,255.00
2024-01-05T01:27:06.576Z,258.00
2024-01-05T01:28:06.511Z,260.00
2024-01-05T01:29:06.501Z,259.00
2024-01-05T01:30:06.623Z,256.00
2024-01-05T01:31:06.695Z,253.00
2024-01-05T01:32:06.522Z,252.00
2024-01-05T01:33:06.616Z,254.00
2024-01-05T01:34:06.618Z,254.00
2024-01-05T01:35:06.543Z,253.00
2024-01-05T01:36:06.568Z,253.00
2024-01-05T01:37:06.517Z,253.00
2024-01-05T01:38:06.532Z,256.00
2024-01-05T01:39:06.606Z,258.00
2024-01-05T01:40:06.629Z,258.00
2024-01-05T01:41:06.574Z,258.00
2024-01-05T01:42:06.624Z,256.00
2024-01-05T01:43:06.612Z,253.00
2024-01-05T01:44:06.565Z,254.00
2024-01-05T01:45:06.570Z,253.00
2024-01-05T01:46:06.582Z,252.00
2024-01-05T01:47:06.555Z,250.00
2024-01-05T01:48:06.825Z,250.00
2024-01-05T01:49:06.722Z,251.00
2024-01-05T01:50:06.612Z,252.00
2024-01-05T01:51:06.647Z,252.00
2024-01-05T01:52:06.609Z,250.00
2024-01-05T01:53:06.608Z,250.00
2024-01-05T01:54:06.683Z,249.00
2024-01-05T01:55:06.637Z,248.00
2024-01-05T01:56:06.651Z,248.00
2024-01-05T01:57:06.636Z,248.00
2024-01-05T01:58:06.618Z,250.00
2024-01-05T01:59:06.639Z,250.00
2024-01-05T02:00:06.727Z,251.00
2024-01-05T02:01:06.691Z,254.00
2024-01-05T02:02:06.628Z,254.00
2024-01-05T02:03:06.844Z,253.00
2024-01-05T02:04:06.743Z,251.00
2024-01-05T02:05:06.700Z,253.00
2024-01-05T02:06:06.784Z,254.00
2024-01-05T02:07:06.659Z,253.00
2024-01-05T02:08:06.645Z,250.00
2024-01-05T02:09:06.702Z,249.00
2024-01-05T02:10:06.643Z,254.00
2024-01-05T02:11:06.653Z,253.00
2024-01-05T02:12:06.701Z,251.00
2024-01-05T02:13:06.637Z,250.00
2024-01-05T02:14:06.644Z,248.00
2024-01-05T02:15:06.679Z,247.00
2024-01-05T02:16:06.679Z,246.00
2024-01-05T02:17:06.656Z,246.00
2024-01-05T02:18:06.733Z,246.00
2024-01-05T02:19:06.754Z,245.00
2024-01-05T02:20:06.653Z,246.00
2024-01-05T02:21:06.688Z,247.00
2024-01-05T02:22:06.663Z,247.00
2024-01-05T02:23:06.669Z,248.00
2024-01-05T02:24:06.734Z,246.00
2024-01-05T02:25:06.659Z,246.00
2024-01-05T02:26:06.733Z,247.00
2024-01-05T02:27:06.694Z,247.00
2024-01-05T02:28:06.671Z,247.00
2024-01-05T02:29:06.702Z,248.00
2024-01-05T02:30:06.733Z,248.00
2024-01-05T02:31:06.783Z,248.00
2024-01-05T02:32:06.680Z,248.00
2024-01-05T02:33:06.813Z,248.00
2024-01-05T02:34:06.756Z,245.00
2024-01-05T02:35:06.775Z,245.00
2024-01-05T02:36:06.710Z,245.00
2024-01-05T02:37:06.693Z,244.00
2024-01-05T02:38:06.696Z,244.00
2024-01-05T02:39:06.736Z,244.00
2024-01-05T02:40:06.700Z,244.00
2024-01-05T02:41:06.703Z,243.00
2024-01-05T02:42:06.728Z,242.00
2024-01-05T02:43:06.710Z,244.00
2024-01-05T02:44:06.703Z,244.00
2024-01-05T02:45:06.716Z,243.00
2024-01-05T02:46:06.747Z,243.00
2024-01-05T02:47:06.714Z,244.00
2024-01-05T02:48:06.916Z,244.00
2024-01-05T02:49:06.856Z,247.00
2024-01-05T02:50:06.705Z,247.00
2024-01-05T02:51:06.792Z,246.00
2024-01-05T02:52:06.713Z,247.00
2024-01-05T02:53:06.718Z,248.00
2024-01-05T02:54:06.779Z,248.00
2024-01-05T02:55:06.717Z,248.00
2024-01-05T02:56:06.717Z,249.00
2024-01-05T02:57:06.762Z,247.00
2024-01-05T02:58:06.723Z,248.00
2024-01-05T02:59:06.708Z,248.00
2024-01-05T03:00:06.738Z,246.00
2024-01-05T03:01:06.778Z,247.00
2024-01-05T03:02:06.716Z,245.00
2024-01-05T03:03:07.009Z,244.00
2024-01-05T03:04:06.832Z,243.00
2024-01-05T03:05:06.742Z,241.00
2024-01-05T03:06:06.737Z,240.00
2024-01-05T03:07:06.724Z,240.00
2024-01-05T03:08:06.729Z,241.00
2024-01-05T03:09:06.784Z,241.00
2024-01-05T03:10:06.757Z,242.00
2024-01-05T03:11:06.736Z,242.00
2024-01-05T03:12:06.859Z,243.00
2024-01-05T03:13:06.735Z,241.00
2024-01-05T03:14:06.737Z,240.00
2024-01-05T03:15:06.822Z,238.00
2024-01-05T03:16:06.751Z,242.00
2024-01-05T03:17:06.742Z,243.00
2024-01-05T03:18:06.963Z,241.00
2024-01-05T03:19:06.906Z,238.00
2024-01-05T03:20:06.803Z,237.00
2024-01-05T03:21:06.780Z,237.00
2024-01-05T03:22:06.760Z,236.00
2024-01-05T03:23:06.768Z,234.00
2024-01-05T03:24:06.847Z,233.00
2024-01-05T03:25:06.777Z,232.00
2024-01-05T03:26:06.771Z,234.00
2024-01-05T03:27:06.786Z,236.00
2024-01-05T03:28:06.771Z,240.00
2024-01-05T03:29:06.778Z,241.00
2024-01-05T03:30:06.895Z,241.00
2024-01-05T03:31:06.842Z,239.00
2024-01-05T03:32:06.801Z,239.00
2024-01-05T03:33:06.902Z,238.00
2024-01-05T03:34:06.952Z,237.00
2024-01-05T03:35:06.784Z,237.00
2024-01-05T03:36:06.899Z,238.00
2024-01-05T03:37:06.800Z,239.00
2024-01-05T03:38:06.784Z,240.00
2024-01-05T03:39:06.845Z,238.00
2024-01-05T03:40:06.784Z,235.00
2024-01-05T03:41:06.821Z,235.00
2024-01-05T03:42:06.897Z,233.00
2024-01-05T03:43:06.872Z,234.00
2024-01-05T03:44:06.914Z,238.00
2024-01-05T03:45:06.964Z,238.00
2024-01-05T03:46:06.916Z,237.00
2024-01-05T03:47:06.916Z,235.00
2024-01-05T03:48:06.994Z,235.00
2024-01-05T03:49:06.990Z,236.00
2024-01-05T03:50:06.920Z,237.00
2024-01-05T03:51:06.956Z,237.00
2024-01-05T03:52:06.925Z,234.00
2024-01-05T03:53:06.933Z,233.00
2024-01-05T03:54:06.958Z,233.00
2024-01-05T03:55:06.919Z,233.00
2024-01-05T03:56:06.944Z,232.00
2024-01-05T03:57:06.957Z,234.00
2024-01-05T03:58:06.914Z,236.00
2024-01-05T03:59:06.941Z,234.00
2024-01-05T04:00:06.987Z,234.00
2024-01-05T04:01:06.987Z,234.00
2024-01-05T04:02:06.944Z,235.00
2024-01-05T04:03:07.061Z,234.00
2024-01-05T04:04:07.045Z,232.00
2024-01-05T04:05:06.969Z,230.00
2024-01-05T04:06:07.040Z,229.00
2024-01-05T04:07:07.010Z,228.00
2024-01-05T04:08:07.033Z,227.00
2024-01-05T04:09:07.107Z,226.00
2024-01-05T04:10:07.096Z,227.00
2024-01-05T04:11:07.154Z,227.00
2024-01-05T04:12:07.193Z,226.00
2024-01-05T04:13:07.126Z,229.00
2024-01-05T04:14:07.207Z,231.00
2024-01-05T04:15:07.167Z,232.00
2024-01-05T04:16:07.145Z,231.00
2024-01-05T04:17:07.148Z,232.00
2024-01-05T04:18:07.314Z,233.00
2024-01-05T04:19:07.301Z,237.00
2024-01-05T04:20:07.164Z,237.00
2024-01-05T04:21:07.247Z,235.00
2024-01-05T04:22:14.415Z,229.00
2024-01-05T04:23:14.407Z,230.00
2024-01-05T04:24:14.430Z,228.00
2024-01-05T04:25:14.413Z,229.00
2024-01-05T04:26:14.421Z,231.00
2024-01-05T04:27:14.436Z,232.00
2024-01-05T04:28:14.416Z,232.00
2024-01-05T04:29:14.421Z,232.00
2024-01-05T04:30:14.543Z,234.00
2024-01-05T04:31:21.883Z,230.00
2024-01-05T04:32:21.786Z,237.00
2024-01-05T04:33:21.957Z,239.00
2024-01-05T04:34:21.835Z,238.00
2024-01-05T04:35:21.786Z,235.00
2024-01-05T04:36:21.955Z,236.00
2024-01-05T04:37:21.795Z,234.00
2024-01-05T04:38:21.801Z,234.00
2024-01-05T04:39:21.813Z,233.00
2024-01-05T04:40:21.810Z,234.00
2024-01-05T04:41:21.801Z,237.00
2024-01-05T04:42:21.810Z,236.00
2024-01-05T04:43:21.800Z,235.00
2024-01-05T04:44:21.808Z,233.00
2024-01-05T04:45:21.856Z,231.00
2024-01-05T04:46:21.804Z,232.00
2024-01-05T04:47:21.826Z,232.00
2024-01-05T04:48:21.924Z,231.00
2024-01-05T04:49:21.872Z,231.00
2024-01-05T04:50:21.824Z,228.00
2024-01-05T04:51:21.855Z,227.00
2024-01-05T04:52:21.819Z,229.00
2024-01-05T04:53:21.816Z,228.00
2024-01-05T04:54:21.897Z,226.00
2024-01-05T04:55:21.823Z,228.00
2024-01-05T04:56:21.823Z,228.00
2024-01-05T04:57:21.884Z,230.00
2024-01-05T04:58:21.850Z,231.00
2024-01-05T04:59:21.862Z,232.00
2024-01-05T05:00:21.973Z,234.00
2024-01-05T05:01:22.048Z,234.00
2024-01-05T05:02:22.070Z,236.00
2024-01-05T05:03:22.216Z,235.00
2024-01-05T05:04:22.192Z,234.00
2024-01-05T05:05:22.294Z,231.00
2024-01-05T05:06:22.403Z,232.00
2024-01-05T05:07:22.361Z,233.00
2024-01-05T05:08:22.373Z,232.00
2024-01-05T05:09:22.418Z,233.00
2024-01-05T05:10:22.384Z,233.00
2024-01-05T05:11:22.651Z,232.00
2024-01-05T05:12:22.417Z,233.00
2024-01-05T05:13:22.378Z,236.00
2024-01-05T05:14:22.378Z,237.00
2024-01-05T05:15:22.467Z,240.00
2024-01-05T05:16:22.765Z,241.00
2024-01-05T05:17:22.517Z,241.00
2024-01-05T05:18:22.456Z,240.00
2024-01-05T05:19:22.522Z,239.00
2024-01-05T05:20:22.414Z,238.00
2024-01-05T05:21:23.035Z,236.00
2024-01-05T05:22:22.461Z,235.00
2024-01-05T05:23:22.399Z,233.00
2024-01-05T05:24:22.428Z,231.00
2024-01-05T05:25:22.422Z,230.00
2024-01-05T05:26:22.883Z,229.00
2024-01-05T05:27:22.416Z,229.00
2024-01-05T05:28:22.412Z,229.00
2024-01-05T05:29:22.406Z,232.00
2024-01-05T05:30:22.516Z,232.00
2024-01-05T05:31:22.860Z,232.00
2024-01-05T05:32:22.450Z,231.00
2024-01-05T05:33:22.515Z,232.00
2024-01-05T05:34:22.558Z,230.00
2024-01-05T05:35:22.414Z,230.00
2024-01-05T05:36:22.446Z,232.00
2024-01-05T05:37:22.512Z,234.00
2024-01-05T05:38:22.418Z,234.00
2024-01-05T05:39:22.457Z,235.00
2024-01-05T05:40:22.426Z,238.00
2024-01-05T05:41:22.431Z,238.00
2024-01-05T05:42:22.429Z,240.00
2024-01-05T05:43:22.430Z,238.00
2024-01-05T05:44:22.428Z,238.00
2024-01-05T05:45:22.495Z,237.00
2024-01-05T05:46:23.337Z,237.00
2024-01-05T05:47:22.533Z,238.00
2024-01-05T05:48:22.732Z,237.00
2024-01-05T05:49:22.676Z,237.00
2024-01-05T05:50:22.633Z,236.00
2024-01-05T05:51:24.398Z,233.00
2024-01-05T05:52:22.758Z,234.00
2024-01-05T05:53:22.820Z,232.00
2024-01-05T05:54:22.897Z,231.00
2024-01-05T05:55:22.960Z,230.00
2024-01-05T05:56:23.061Z,228.00
2024-01-05T05:57:23.239Z,224.00
2024-01-05T05:58:23.144Z,225.00
2024-01-05T05:59:23.057Z,226.00
2024-01-05T06:00:23.088Z,225.00
2024-01-05T06:01:23.100Z,227.00
2024-01-05T06:02:23.077Z,228.00
2024-01-05T06:03:23.140Z,230.00
2024-01-05T06:04:23.092Z,230.00
2024-01-05T06:05:23.135Z,231.00
2024-01-05T06:06:23.297Z,230.00
2024-01-05T06:07:23.067Z,229.00
2024-01-05T06:08:23.071Z,229.00
2024-01-05T06:09:23.111Z,232.00
2024-01-05T06:10:23.079Z,231.00
2024-01-05T06:11:25.221Z,231.00
2024-01-05T06:12:23.120Z,232.00
2024-01-05T06:13:23.085Z,231.00
2024-01-05T06:14:23.095Z,231.00
2024-01-05T06:15:23.127Z,230.00
2024-01-05T06:16:23.100Z,228.00
2024-01-05T06:17:23.089Z,226.00
2024-01-05T06:18:23.244Z,229.00
2024-01-05T06:19:23.150Z,230.00
2024-01-05T06:20:23.107Z,232.00
2024-01-05T06:21:23.169Z,235.00
2024-01-05T06:22:23.139Z,235.00
2024-01-05T06:23:23.113Z,235.00
2024-01-05T06:24:23.157Z,236.00
2024-01-05T06:25:23.122Z,237.00
2024-01-05T06:26:23.121Z,235.00
2024-01-05T06:27:32.558Z,235.00
2024-01-05T06:28:27.776Z,235.00
2024-01-05T06:29:23.129Z,235.00
2024-01-05T06:30:23.181Z,238.00
2024-01-05T06:31:23.189Z,236.00
2024-01-05T06:32:23.130Z,234.00
2024-01-05T06:33:23.260Z,233.00
2024-01-05T06:34:23.199Z,234.00
2024-01-05T06:35:23.151Z,235.00
2024-01-05T06:36:23.215Z,235.00
2024-01-05T06:37:23.159Z,236.00
2024-01-05T06:38:23.145Z,235.00
2024-01-05T06:39:23.237Z,235.00
2024-01-05T06:40:23.156Z,236.00
2024-01-05T06:41:23.152Z,237.00
2024-01-05T06:42:23.271Z,235.00
2024-01-05T06:43:23.169Z,233.00
2024-01-05T06:44:23.150Z,233.00
2024-01-05T06:45:23.169Z,233.00
2024-01-05T06:46:23.157Z,233.00
2024-01-05T06:47:23.154Z,232.00
2024-01-05T06:48:23.412Z,234.00
2024-01-05T06:49:23.287Z,234.00
2024-01-05T06:50:23.355Z,234.00
2024-01-05T06:51:23.175Z,232.00
2024-01-05T06:52:23.157Z,233.00
2024-01-05T06:53:23.166Z,234.00
2024-01-05T06:54:23.204Z,235.00
2024-01-05T06:55:23.173Z,234.00
2024-01-05T06:56:23.186Z,235.00
2024-01-05T06:57:23.201Z,237.00
2024-01-05T06:58:23.183Z,235.00
2024-01-05T06:59:23.188Z,235.00
2024-01-05T07:00:23.190Z,233.00
2024-01-05T07:01:23.196Z,232.00
2024-01-05T07:02:23.181Z,233.00
2024-01-05T07:03:23.280Z,236.00
2024-01-05T07:04:23.197Z,237.00
2024-01-05T07:05:23.250Z,240.00
2024-01-05T07:06:23.229Z,240.00
2024-01-05T07:07:23.186Z,239.00
2024-01-05T07:08:23.193Z,240.00
2024-01-05T07:09:23.215Z,238.00
2024-01-05T07:10:23.203Z,237.00
2024-01-05T07:11:23.283Z,237.00
2024-01-05T07:12:23.245Z,237.00
2024-01-05T07:13:23.199Z,238.00
2024-01-05T07:14:23.204Z,237.00
2024-01-05T07:15:23.246Z,238.00
2024-01-05T07:16:23.218Z,237.00
2024-01-05T07:17:23.280Z,234.00
2024-01-05T07:18:23.322Z,232.00
2024-01-05T07:19:23.360Z,234.00
2024-01-05T07:20:23.216Z,233.00
2024-01-05T07:21:23.309Z,235.00
2024-01-05T07:22:23.215Z,237.00
2024-01-05T07:23:23.222Z,237.00
2024-01-05T07:24:23.244Z,237.00
2024-01-05T07:25:23.247Z,237.00
2024-01-05T07:26:23.240Z,237.00
2024-01-05T07:27:23.261Z,237.00
2024-01-05T07:28:23.250Z,237.00
2024-01-05T07:29:23.232Z,238.00
2024-01-05T07:30:23.497Z,238.00
2024-01-05T07:31:23.333Z,236.00
2024-01-05T07:32:23.250Z,234.00
2024-01-05T07:33:23.346Z,233.00
2024-01-05T07:34:23.415Z,233.00
2024-01-05T07:35:23.262Z,234.00
2024-01-05T07:36:23.269Z,232.00
2024-01-05T07:37:23.244Z,231.00
2024-01-05T07:38:23.246Z,231.00
2024-01-05T07:39:23.312Z,230.00
2024-01-05T07:40:23.255Z,231.00
2024-01-05T07:41:23.270Z,231.00
2024-01-05T07:42:23.313Z,231.00
2024-01-05T07:43:23.272Z,232.00
2024-01-05T07:44:23.262Z,233.00
2024-01-05T07:45:23.286Z,233.00
2024-01-05T07:46:23.705Z,230.00
2024-01-05T07:47:23.271Z,230.00
2024-01-05T07:48:23.406Z,231.00
2024-01-05T07:49:23.396Z,230.00
2024-01-05T07:50:23.293Z,231.00
2024-01-05T07:51:23.310Z,230.00
2024-01-05T07:52:23.280Z,230.00
2024-01-05T07:53:23.290Z,230.00
2024-01-05T07:54:23.329Z,231.00
2024-01-05T07:55:23.303Z,231.00
2024-01-05T07:56:23.298Z,232.00
2024-01-05T07:57:23.359Z,232.00
2024-01-05T07:58:23.303Z,228.00
2024-01-05T07:59:23.313Z,228.00
2024-01-05T08:00:23.336Z,228.00
2024-01-05T08:01:23.343Z,228.00
2024-01-05T08:02:23.305Z,230.00
2024-01-05T08:03:23.455Z,230.00
2024-01-05T08:04:23.358Z,232.00
2024-01-05T08:05:23.327Z,231.00
2024-01-05T08:06:23.416Z,230.00
2024-01-05T08:07:23.310Z,230.00
2024-01-05T08:08:23.307Z,230.00
2024-01-05T08:09:23.390Z,229.00
2024-01-05T08:10:23.313Z,229.00
2024-01-05T08:11:23.325Z,229.00
2024-01-05T08:12:23.376Z,228.00
2024-01-05T08:13:23.347Z,225.00
2024-01-05T08:14:23.315Z,223.00
2024-01-05T08:15:23.360Z,222.00
2024-01-05T08:16:23.323Z,223.00
2024-01-05T08:17:23.334Z,223.00
2024-01-05T08:18:23.414Z,223.00
2024-01-05T08:19:23.503Z,224.00
2024-01-05T08:20:23.341Z,225.00
2024-01-05T08:21:23.370Z,225.00
2024-01-05T08:22:23.322Z,225.00
2024-01-05T08:23:23.325Z,227.00
2024-01-05T08:24:23.356Z,228.00
2024-01-05T08:25:24.351Z,229.00
2024-01-05T08:26:23.368Z,227.00
2024-01-05T08:27:23.386Z,226.00
2024-01-05T08:28:23.331Z,226.00
2024-01-05T08:29:23.339Z,226.00
2024-01-05T08:30:23.434Z,225.00
2024-01-05T08:31:23.463Z,226.00
2024-01-05T08:32:23.412Z,229.00
2024-01-05T08:33:23.445Z,228.00
2024-01-05T08:34:23.432Z,227.00
2024-01-05T08:35:23.348Z,229.00
2024-01-05T08:36:23.483Z,229.00
2024-01-05T08:37:23.407Z,230.00
2024-01-05T08:38:23.425Z,233.00
2024-01-05T08:39:23.470Z,232.00
2024-01-05T08:40:23.483Z,232.00
2024-01-05T08:41:23.852Z,235.00
2024-01-05T08:42:23.618Z,235.00
2024-01-05T08:43:23.625Z,234.00
2024-01-05T08:44:23.634Z,232.00
2024-01-05T08:45:23.698Z,233.00
2024-01-05T08:52:23.667Z,231.00
2024-01-05T08:53:23.680Z,231.00
2024-01-05T08:54:23.699Z,232.00
2024-01-05T08:55:23.676Z,229.00
2024-01-05T08:56:25.517Z,229.00
2024-01-05T08:57:23.738Z,229.00
2024-01-05T08:58:23.683Z,227.00
2024-01-05T08:59:23.699Z,228.00
2024-01-05T09:00:23.745Z,230.00
2024-01-05T09:01:24.041Z,230.00
2024-01-05T09:02:23.711Z,230.00
2024-01-05T09:03:23.752Z,228.00
2024-01-05T09:04:23.732Z,228.00
2024-01-05T09:05:23.726Z,228.00
2024-01-05T09:06:23.815Z,231.00
2024-01-05T09:07:23.699Z,231.00
2024-01-05T09:08:23.691Z,231.00
2024-01-05T09:09:23.748Z,232.00
2024-01-05T09:10:23.734Z,233.00
2024-01-05T09:11:23.705Z,231.00
2024-01-05T09:12:23.757Z,232.00
2024-01-05T09:13:23.730Z,231.00
2024-01-05T09:14:23.703Z,232.00
2024-01-05T09:15:23.726Z,231.00
2024-01-05T09:16:23.720Z,232.00
2024-01-05T09:17:23.750Z,231.00
2024-01-05T09:18:23.876Z,231.00
2024-01-05T09:19:25.994Z,231.00
2024-01-05T09:20:23.708Z,231.00
2024-01-05T09:21:23.743Z,230.00
2024-01-05T09:22:23.723Z,229.00
2024-01-05T09:23:23.731Z,230.00
2024-01-05T09:24:23.749Z,231.00
2024-01-05T09:25:23.731Z,232.00
2024-01-05T09:26:23.740Z,232.00
2024-01-05T09:27:23.763Z,231.00
2024-01-05T09:28:23.723Z,230.00
2024-01-05T09:29:23.733Z,230.00
2024-01-05T09:30:23.786Z,231.00
2024-01-05T09:31:23.824Z,232.00
2024-01-05T09:32:23.814Z,230.00
2024-01-05T09:33:23.848Z,229.00
2024-01-05T09:34:23.807Z,230.00
2024-01-05T09:35:23.731Z,231.00
2024-01-05T09:36:23.815Z,232.00
2024-01-05T09:37:23.737Z,232.00
2024-01-05T09:38:23.755Z,233.00
2024-01-05T09:39:23.778Z,231.00
2024-01-05T09:40:23.753Z,232.00
2024-01-05T09:41:23.777Z,231.00
2024-01-05T09:42:23.772Z,231.00
2024-01-05T09:43:23.762Z,231.00
2024-01-05T09:44:23.754Z,230.00
2024-01-05T09:45:23.803Z,232.00
2024-01-05T09:46:23.779Z,233.00
2024-01-05T09:47:23.776Z,234.00
2024-01-05T09:48:30.234Z,233.00
2024-01-05T09:49:24.932Z,230.00
2024-01-05T09:50:23.884Z,230.00
2024-01-05T09:51:23.793Z,228.00
2024-01-05T09:52:23.765Z,228.00
2024-01-05T09:53:23.776Z,229.00
2024-01-05T09:54:23.798Z,230.00
2024-01-05T09:55:23.780Z,231.00
2024-01-05T09:56:23.803Z,229.00
2024-01-05T09:57:23.854Z,232.00
2024-01-05T09:58:23.766Z,233.00
2024-01-05T09:59:23.774Z,232.00
2024-01-05T10:00:23.830Z,230.00
2024-01-05T10:01:23.795Z,228.00
2024-01-05T10:02:23.811Z,227.00
2024-01-05T10:03:23.847Z,226.00
2024-01-05T10:04:23.852Z,227.00
2024-01-05T10:05:23.816Z,228.00
2024-01-05T10:06:23.838Z,230.00
2024-01-05T10:07:23.795Z,230.00
2024-01-05T10:08:23.799Z,228.00
2024-01-05T10:09:23.970Z,226.00
2024-01-05T10:10:23.805Z,227.00
2024-01-05T10:11:23.818Z,227.00
2024-01-05T10:12:23.843Z,228.00
2024-01-05T10:13:23.802Z,229.00
2024-01-05T10:14:23.807Z,231.00
2024-01-05T10:15:23.821Z,232.00
2024-01-05T10:16:23.833Z,228.00
2024-01-05T10:17:23.799Z,230.00
2024-01-05T10:18:26.000Z,230.00
2024-01-05T10:19:23.896Z,229.00
2024-01-05T10:20:23.807Z,229.00
2024-01-05T10:21:23.825Z,228.00
2024-01-05T10:22:23.817Z,226.00
2024-01-05T10:23:23.812Z,227.00
2024-01-05T10:24:24.653Z,225.00
2024-01-05T10:25:23.839Z,225.00
2024-01-05T10:26:23.828Z,223.00
2024-01-05T10:27:23.862Z,222.00
2024-01-05T10:28:23.826Z,222.00
2024-01-05T10:29:23.832Z,222.00
2024-01-05T10:30:23.906Z,220.00
2024-01-05T10:31:23.862Z,221.00
2024-01-05T10:32:23.817Z,224.00
2024-01-05T10:33:23.913Z,221.00
2024-01-05T10:34:23.890Z,221.00
2024-01-05T10:35:23.836Z,220.00
2024-01-05T10:36:23.911Z,219.00
2024-01-05T10:37:23.851Z,221.00
2024-01-05T10:38:23.851Z,221.00
2024-01-05T10:39:23.898Z,222.00
2024-01-05T10:40:23.836Z,224.00
2024-01-05T10:41:23.850Z,225.00
2024-01-05T10:42:24.126Z,225.00
2024-01-05T10:43:23.860Z,226.00
2024-01-05T10:44:23.861Z,226.00
2024-01-05T10:45:23.905Z,226.00
2024-01-05T10:46:23.877Z,229.00
2024-01-05T10:47:23.845Z,229.00
2024-01-05T10:48:23.990Z,228.00
2024-01-05T10:49:23.949Z,229.00
2024-01-05T10:50:23.881Z,229.00
2024-01-05T10:51:23.921Z,229.00
2024-01-05T10:52:23.877Z,229.00
2024-01-05T10:53:23.876Z,231.00
2024-01-05T10:54:23.921Z,234.00
2024-01-05T10:55:23.847Z,235.00
2024-01-05T10:56:23.862Z,232.00
2024-01-05T10:57:23.935Z,230.00
2024-01-05T10:58:23.874Z,229.00
2024-01-05T10:59:23.858Z,227.00
2024-01-05T11:00:23.943Z,228.00
2024-01-05T11:01:23.885Z,231.00
2024-01-05T11:02:23.922Z,232.00
2024-01-05T11:03:23.889Z,232.00
2024-01-05T11:04:23.939Z,233.00
2024-01-05T11:05:23.854Z,233.00
2024-01-05T11:06:23.946Z,233.00
2024-01-05T11:07:23.953Z,233.00
2024-01-05T11:08:23.877Z,233.00
2024-01-05T11:09:23.894Z,232.00
2024-01-05T11:10:23.855Z,231.00
2024-01-05T11:11:23.882Z,230.00
2024-01-05T11:12:23.907Z,228.00
2024-01-05T11:13:23.865Z,227.00
2024-01-05T11:14:23.893Z,227.00
2024-01-05T11:15:24.030Z,227.00
2024-01-05T11:16:23.889Z,227.00
2024-01-05T11:17:23.901Z,230.00
2024-01-05T11:18:24.009Z,233.00
2024-01-05T11:19:23.951Z,232.00
2024-01-05T11:20:23.886Z,234.00
2024-01-05T11:21:23.929Z,233.00
2024-01-05T11:22:23.889Z,233.00
2024-01-05T11:23:23.886Z,231.00
2024-01-05T11:24:23.903Z,230.00
2024-01-05T11:25:23.968Z,231.00
2024-01-05T11:26:23.909Z,232.00
2024-01-05T11:27:23.981Z,231.00
2024-01-05T11:28:23.893Z,231.00
2024-01-05T11:29:23.911Z,230.00
2024-01-05T11:30:24.141Z,230.00
2024-01-05T11:31:24.092Z,230.00
2024-01-05T11:32:23.962Z,232.00
2024-01-05T11:33:30.019Z,232.00
2024-01-05T11:34:24.083Z,232.00
2024-01-05T11:35:23.921Z,232.00
2024-01-05T11:36:23.953Z,232.00
2024-01-05T11:37:23.917Z,233.00
2024-01-05T11:38:23.938Z,235.00
2024-01-05T11:39:24.000Z,234.00
2024-01-05T11:40:23.937Z,236.00
2024-01-05T11:41:23.969Z,236.00
2024-01-05T11:42:23.966Z,237.00
2024-01-05T11:43:23.940Z,235.00
2024-01-05T11:44:23.936Z,236.00
2024-01-05T11:45:23.967Z,236.00
2024-01-05T11:46:26.136Z,237.00
2024-01-05T11:47:23.974Z,238.00
2024-01-05T11:48:24.045Z,239.00
2024-01-05T11:49:23.969Z,237.00
2024-01-05T11:50:23.939Z,237.00
2024-01-05T11:51:23.985Z,237.00
2024-01-05T11:52:24.352Z,237.00
2024-01-05T11:53:23.972Z,236.00
2024-01-05T11:54:24.004Z,236.00
2024-01-05T11:55:23.949Z,234.00
2024-01-05T11:56:24.007Z,232.00
2024-01-05T11:57:23.976Z,233.00
2024-01-05T11:58:23.947Z,235.00
2024-01-05T11:59:23.961Z,235.00
2024-01-05T12:00:24.023Z,235.00
2024-01-05T12:01:23.994Z,235.00
2024-01-05T12:02:23.975Z,234.00
2024-01-05T12:03:24.045Z,233.00
2024-01-05T12:04:24.063Z,232.00
2024-01-05T12:05:24.015Z,236.00
2024-01-05T12:06:24.009Z,236.00
2024-01-05T12:07:23.963Z,238.00
2024-01-05T12:08:23.966Z,236.00
2024-01-05T12:09:24.007Z,237.00
2024-01-05T12:10:23.991Z,237.00
2024-01-05T12:11:23.991Z,238.00
2024-01-05T12:12:24.012Z,240.00
2024-01-05T12:13:23.987Z,240.00
2024-01-05T12:14:23.996Z,241.00
2024-01-05T12:15:24.009Z,239.00
2024-01-05T12:16:24.039Z,239.00
2024-01-05T12:17:24.026Z,237.00
2024-01-05T12:18:31.286Z,233.00
2024-01-05T12:19:25.172Z,233.00
2024-01-05T12:20:24.130Z,233.00
2024-01-05T12:21:24.104Z,233.00
2024-01-05T12:22:24.004Z,233.00
2024-01-05T12:23:23.999Z,234.00
2024-01-05T12:24:24.041Z,234.00
2024-01-05T12:25:24.013Z,234.00
2024-01-05T12:26:24.107Z,234.00
2024-01-05T12:27:24.035Z,235.00
2024-01-05T12:28:24.046Z,233.00
2024-01-05T12:29:24.043Z,231.00
2024-01-05T12:30:24.071Z,231.00
2024-01-05T12:31:24.337Z,230.00
2024-01-05T12:32:24.018Z,230.00
2024-01-05T12:33:24.118Z,229.00
2024-01-05T12:34:24.089Z,229.00